Time;durP1;ratioP1;P1;durP2;ratioP2;P2;SDS_P1;SDS_P2;PMS_P1;PMS_P2;Temp;Humidity;BMP_temperature;BMP_pressure;BME280_temperature;BME280_humidity;BME280_pressure;Samples;Min_cycle;Max_cycle;Signal;HPM_P1;HPM_P2
2022/04/22 00:00:57;;;;;;;3.35;2.80;;;;;;;;;;4998856;28;20050;-70
2022/04/22 00:03:23;;;;;;;3.30;3.00;;;;;;;;;;5016429;28;20104;-70
2022/04/22 00:05:49;;;;;;;3.50;3.10;;;;;;;;;;5016317;28;20100;-70
2022/04/22 00:08:15;;;;;;;3.17;2.83;;;;;;;;;;5016018;28;20046;-70
2022/04/22 00:11:29;;;;;;;3.00;2.70;;;;;;;;;;5015980;28;20053;-70
2022/04/22 00:13:28;;;;;;;3.33;2.90;;;;;;;;;;5016171;28;20489;-70
2022/04/22 00:15:54;;;;;;;3.10;2.78;;;;;;;;;;5016317;28;20046;-70
2022/04/22 00:18:19;;;;;;;3.30;2.70;;;;;;;;;;5015951;28;20061;-70
2022/04/22 00:20:45;;;;;;;3.03;2.70;;;;;;;;;;5016334;28;20085;-70
2022/04/22 00:23:11;;;;;;;4.07;3.25;;;;;;;;;;5016274;28;20096;-70
2022/04/22 00:25:37;;;;;;;3.10;2.80;;;;;;;;;;5016442;28;20405;-70
2022/04/22 00:28:04;;;;;;;3.20;2.90;;;;;;;;;;5020946;28;20038;-70
2022/04/22 00:30:29;;;;;;;3.45;3.00;;;;;;;;;;5016711;28;20050;-70
2022/04/22 00:32:55;;;;;;;3.10;2.78;;;;;;;;;;5016255;28;20176;-70
2022/04/22 00:35:21;;;;;;;3.50;2.95;;;;;;;;;;5015661;28;20038;-70
2022/04/22 00:37:49;;;;;;;3.17;2.72;;;;;;;;;;5015461;28;20053;-70
2022/04/22 00:40:15;;;;;;;3.67;3.15;;;;;;;;;;5019260;28;20120;-70
2022/04/22 00:42:41;;;;;;;3.20;2.70;;;;;;;;;;5015613;28;20041;-70
2022/04/22 00:45:09;;;;;;;3.13;2.83;;;;;;;;;;5015701;28;20440;-70
2022/04/22 00:47:35;;;;;;;3.25;2.92;;;;;;;;;;5015232;28;20108;-70
2022/04/22 00:50:01;;;;;;;3.63;2.80;;;;;;;;;;5015106;28;20061;-70
2022/04/22 00:52:27;;;;;;;3.40;3.10;;;;;;;;;;5015701;28;20054;-70
2022/04/22 00:54:53;;;;;;;3.25;2.95;;;;;;;;;;5015083;28;20397;-70
2022/04/22 00:57:20;;;;;;;3.60;2.95;;;;;;;;;;5015785;28;20048;-70
2022/04/22 00:59:46;;;;;;;3.25;2.80;;;;;;;;;;5015178;28;20054;-70
2022/04/22 01:02:12;;;;;;;3.63;2.97;;;;;;;;;;5015443;28;20050;-70
2022/04/22 01:10:09;;;;;;;3.72;2.72;;;;;;;;;;5014686;28;20045;-70
2022/04/22 01:12:35;;;;;;;3.10;2.72;;;;;;;;;;5014590;28;20397;-69
2022/04/22 01:15:01;;;;;;;3.95;2.80;;;;;;;;;;5015233;28;20053;-70
2022/04/22 01:17:27;;;;;;;3.40;2.88;;;;;;;;;;5015239;28;20054;-70
2022/04/22 01:19:57;;;;;;;3.63;3.30;;;;;;;;;;5015074;28;20120;-70
2022/04/22 01:22:23;;;;;;;3.00;2.70;;;;;;;;;;5014863;28;20080;-70
2022/04/22 01:24:52;;;;;;;3.15;2.80;;;;;;;;;;5014707;28;20042;-70
2022/04/22 01:27:19;;;;;;;4.30;3.03;;;;;;;;;;5014995;28;20088;-70
2022/04/22 01:29:45;;;;;;;4.00;3.10;;;;;;;;;;5014596;28;20041;-70
2022/04/22 01:32:11;;;;;;;3.60;2.90;;;;;;;;;;5014495;28;20552;-69
2022/04/22 01:34:38;;;;;;;3.10;2.80;;;;;;;;;;5014694;28;20599;-70
2022/04/22 01:37:05;;;;;;;3.67;2.95;;;;;;;;;;5014528;28;20054;-70
2022/04/22 01:39:32;;;;;;;3.30;2.90;;;;;;;;;;5014508;28;20121;-70
2022/04/22 01:41:59;;;;;;;3.35;2.92;;;;;;;;;;5014065;28;20501;-70
2022/04/22 01:44:26;;;;;;;3.25;2.50;;;;;;;;;;5014499;28;20165;-70
2022/04/22 01:46:52;;;;;;;3.13;2.83;;;;;;;;;;5014266;28;20516;-70
2022/04/22 01:49:18;;;;;;;3.40;2.92;;;;;;;;;;5014185;28;20132;-69
2022/04/22 01:51:44;;;;;;;3.42;3.10;;;;;;;;;;5014486;28;20045;-70
2022/04/22 01:54:11;;;;;;;3.28;2.83;;;;;;;;;;5014280;28;20397;-70
2022/04/22 01:56:37;;;;;;;2.90;2.60;;;;;;;;;;5015195;28;20504;-70
2022/04/22 01:59:03;;;;;;;3.78;2.90;;;;;;;;;;5014131;28;20120;-70
2022/04/22 02:01:29;;;;;;;3.30;3.00;;;;;;;;;;5014369;28;20050;-70
2022/04/22 02:03:55;;;;;;;3.38;2.90;;;;;;;;;;5014067;28;20041;-70
2022/04/22 02:06:22;;;;;;;4.15;2.95;;;;;;;;;;5014288;28;20057;-70
2022/04/22 02:08:48;;;;;;;2.97;2.50;;;;;;;;;;5013496;28;20401;-70
2022/04/22 02:11:14;;;;;;;3.30;2.78;;;;;;;;;;5013787;28;20068;-69
2022/04/22 02:13:40;;;;;;;3.70;2.88;;;;;;;;;;5013992;28;20104;-70
2022/04/22 02:16:07;;;;;;;3.20;2.90;;;;;;;;;;4996422;28;20048;-70
2022/04/22 02:18:36;;;;;;;3.78;2.70;;;;;;;;;;5014174;28;20054;-70
2022/04/22 02:21:06;;;;;;;3.20;2.90;;;;;;;;;;5013843;28;20038;-70
2022/04/22 02:23:32;;;;;;;3.50;3.20;;;;;;;;;;5013060;28;20045;-70
2022/04/22 02:25:58;;;;;;;3.17;2.67;;;;;;;;;;5013634;28;20045;-70
2022/04/22 02:28:35;;;;;;;3.47;3.03;;;;;;;;;;5013354;28;20580;-70
2022/04/22 02:31:06;;;;;;;2.97;2.58;;;;;;;;;;4994147;28;20366;-70
2022/04/22 02:33:33;;;;;;;3.30;2.70;;;;;;;;;;4995210;28;20510;-70
2022/04/22 02:35:59;;;;;;;3.65;3.00;;;;;;;;;;5013615;28;20084;-70
2022/04/22 02:38:27;;;;;;;3.70;2.95;;;;;;;;;;5013592;28;20135;-70
2022/04/22 02:46:23;;;;;;;3.65;3.03;;;;;;;;;;5013549;28;20041;-70
2022/04/22 02:48:49;;;;;;;2.80;2.50;;;;;;;;;;5013270;28;20401;-70
2022/04/22 02:51:15;;;;;;;3.22;2.90;;;;;;;;;;5013536;28;20095;-70
2022/04/22 02:53:41;;;;;;;3.38;2.90;;;;;;;;;;5013490;28;20121;-70
2022/04/22 02:56:07;;;;;;;3.45;2.90;;;;;;;;;;5012611;28;20476;-70
2022/04/22 02:58:34;;;;;;;3.58;2.90;;;;;;;;;;5013469;28;20053;-70
2022/04/22 03:01:00;;;;;;;3.13;2.83;;;;;;;;;;5012730;28;20050;-70
2022/04/22 03:03:26;;;;;;;4.20;2.58;;;;;;;;;;5013285;28;20442;-70
2022/04/22 03:05:52;;;;;;;4.32;2.97;;;;;;;;;;5013356;28;20054;-70
2022/04/22 03:08:18;;;;;;;3.00;2.65;;;;;;;;;;5013166;28;20394;-70
2022/04/22 03:10:44;;;;;;;3.15;2.85;;;;;;;;;;5012885;28;20046;-70
2022/04/22 03:13:10;;;;;;;3.33;2.50;;;;;;;;;;5013133;28;20042;-70
2022/04/22 03:15:36;;;;;;;2.95;2.60;;;;;;;;;;4995484;28;20046;-70
2022/04/22 03:18:03;;;;;;;2.88;2.55;;;;;;;;;;5013471;28;20050;-70
2022/04/22 03:20:29;;;;;;;3.20;2.70;;;;;;;;;;5013109;28;20125;-70
2022/04/22 03:22:55;;;;;;;3.22;2.60;;;;;;;;;;5012996;28;20130;-70
2022/04/22 03:25:21;;;;;;;3.08;2.78;;;;;;;;;;5012794;28;20046;-70
2022/04/22 03:27:47;;;;;;;3.80;2.65;;;;;;;;;;5012977;28;20090;-70
2022/04/22 03:30:13;;;;;;;2.95;2.63;;;;;;;;;;4995321;28;20085;-70
2022/04/22 03:32:39;;;;;;;3.00;2.67;;;;;;;;;;5013101;28;20037;-70
2022/04/22 03:35:06;;;;;;;3.17;2.60;;;;;;;;;;5016840;28;20064;-70
2022/04/22 03:37:32;;;;;;;3.22;2.90;;;;;;;;;;5016678;28;20092;-70
2022/04/22 03:39:58;;;;;;;3.10;2.60;;;;;;;;;;5016812;28;20062;-70
2022/04/22 03:42:24;;;;;;;3.15;2.63;;;;;;;;;;5017392;28;20480;-70
2022/04/22 03:44:50;;;;;;;2.90;2.60;;;;;;;;;;5016778;28;20042;-70
2022/04/22 03:47:16;;;;;;;3.20;2.70;;;;;;;;;;5017190;28;20524;-70
2022/04/22 03:49:42;;;;;;;3.15;2.60;;;;;;;;;;5016574;28;20069;-70
2022/04/22 03:52:08;;;;;;;2.83;2.53;;;;;;;;;;5016919;28;20045;-70
2022/04/22 03:54:34;;;;;;;3.17;2.50;;;;;;;;;;5016256;28;20053;-70
2022/04/22 03:59:44;;;;;;;3.33;2.67;;;;;;;;;;5016396;28;20057;-70
2022/04/22 04:02:10;;;;;;;3.53;2.70;;;;;;;;;;5016406;28;20104;-70
2022/04/22 04:04:36;;;;;;;4.32;2.90;;;;;;;;;;5016311;28;20053;-70
2022/04/22 04:07:03;;;;;;;3.08;2.80;;;;;;;;;;5016413;28;20042;-70
2022/04/22 04:17:47;;;;;;;3.22;2.80;;;;;;;;;;4955729;29;20435;-70
2022/04/22 04:23:17;;;;;;;2.72;2.40;;;;;;;;;;4955465;29;20051;-70
2022/04/22 04:25:44;;;;;;;3.60;2.70;;;;;;;;;;4955356;29;20051;-70
2022/04/22 04:28:11;;;;;;;3.25;2.80;;;;;;;;;;4954342;29;20075;-69
2022/04/22 04:30:40;;;;;;;2.80;2.60;;;;;;;;;;4937751;29;20497;-70
2022/04/22 04:33:07;;;;;;;3.22;2.90;;;;;;;;;;4954644;29;20487;-70
2022/04/22 04:35:38;;;;;;;2.67;2.47;;;;;;;;;;4955405;29;20058;-70
2022/04/22 04:38:06;;;;;;;3.00;2.40;;;;;;;;;;4955107;29;20122;-70
2022/04/22 04:40:32;;;;;;;3.08;2.63;;;;;;;;;;4955324;29;20438;-70
2022/04/22 04:43:00;;;;;;;2.90;2.60;;;;;;;;;;4955223;29;20167;-70
2022/04/22 04:45:27;;;;;;;3.10;2.50;;;;;;;;;;4954395;28;20058;-70
2022/04/22 04:47:53;;;;;;;3.38;2.70;;;;;;;;;;4955235;29;20594;-70
2022/04/22 04:50:19;;;;;;;3.15;2.70;;;;;;;;;;4955111;29;20039;-70
2022/04/22 04:52:45;;;;;;;3.05;2.60;;;;;;;;;;4954612;29;20066;-70
2022/04/22 04:55:15;;;;;;;2.42;2.22;;;;;;;;;;4995451;28;20410;-70
2022/04/22 04:57:42;;;;;;;2.85;2.40;;;;;;;;;;5015326;28;20054;-70
2022/04/22 05:00:09;;;;;;;2.72;2.40;;;;;;;;;;5015206;28;20523;-70
2022/04/22 05:02:35;;;;;;;2.80;2.50;;;;;;;;;;5015571;28;20591;-70
2022/04/22 05:05:02;;;;;;;2.90;2.47;;;;;;;;;;5015501;28;20083;-70
2022/04/22 05:07:28;;;;;;;2.83;2.53;;;;;;;;;;5018229;28;20046;-70
2022/04/22 05:09:54;;;;;;;2.88;2.63;;;;;;;;;;4996931;28;20041;-70
2022/04/22 05:12:20;;;;;;;2.85;2.50;;;;;;;;;;5015794;28;20053;-70
2022/04/22 05:14:46;;;;;;;2.63;2.20;;;;;;;;;;5015417;28;20046;-70
2022/04/22 05:17:12;;;;;;;2.63;2.40;;;;;;;;;;5015179;28;20090;-70
2022/04/22 05:19:38;;;;;;;2.60;2.40;;;;;;;;;;5015183;28;20068;-70
2022/04/22 05:22:04;;;;;;;3.75;2.53;;;;;;;;;;5015105;28;20042;-70
2022/04/22 05:24:35;;;;;;;3.03;2.30;;;;;;;;;;5014751;28;20049;-69
2022/04/22 05:27:01;;;;;;;2.30;2.10;;;;;;;;;;5014816;28;20051;-69
2022/04/22 05:34:57;;;;;;;2.42;2.13;;;;;;;;;;5014829;28;20081;-70
2022/04/22 05:37:23;;;;;;;2.70;2.20;;;;;;;;;;5014268;28;20489;-70
2022/04/22 05:39:49;;;;;;;3.50;2.30;;;;;;;;;;5014490;28;20048;-70
2022/04/22 05:42:15;;;;;;;2.28;2.08;;;;;;;;;;5014351;28;20046;-70
2022/04/22 05:44:41;;;;;;;2.58;2.20;;;;;;;;;;4996866;28;20103;-70
2022/04/22 05:47:07;;;;;;;2.45;2.20;;;;;;;;;;5014372;28;20041;-70
2022/04/22 05:49:33;;;;;;;2.35;2.10;;;;;;;;;;5013195;28;20478;-70
2022/04/22 05:51:59;;;;;;;2.20;2.00;;;;;;;;;;5014056;28;20041;-70
2022/04/22 05:54:25;;;;;;;3.40;2.40;;;;;;;;;;5014696;28;20054;-70
2022/04/22 05:56:51;;;;;;;2.80;2.30;;;;;;;;;;5014533;28;20052;-69
2022/04/22 05:59:17;;;;;;;2.40;2.00;;;;;;;;;;5016767;28;20057;-69
2022/04/22 06:01:43;;;;;;;2.83;2.00;;;;;;;;;;5015358;28;20539;-69
2022/04/22 06:04:09;;;;;;;2.78;2.10;;;;;;;;;;5012877;28;20050;-69
2022/04/22 06:06:35;;;;;;;2.17;1.75;;;;;;;;;;5013803;28;20108;-69
2022/04/22 06:11:46;;;;;;;3.03;2.10;;;;;;;;;;5014133;28;20050;-69
2022/04/22 06:14:12;;;;;;;2.67;2.13;;;;;;;;;;5014025;28;20121;-69
2022/04/22 06:16:39;;;;;;;3.35;2.10;;;;;;;;;;5014113;28;20394;-69
2022/04/22 06:19:05;;;;;;;2.30;1.92;;;;;;;;;;5013476;28;20045;-69
2022/04/22 06:21:31;;;;;;;2.50;2.00;;;;;;;;;;5022990;28;20050;-69
2022/04/22 06:23:57;;;;;;;4.00;2.38;;;;;;;;;;5015270;28;20293;-68
2022/04/22 06:26:23;;;;;;;10.05;2.70;;;;;;;;;;5013513;28;20096;-69
2022/04/22 06:28:49;;;;;;;16.25;2.90;;;;;;;;;;5013551;28;20049;-69
2022/04/22 06:31:15;;;;;;;8.65;2.97;;;;;;;;;;5013506;28;20121;-69
2022/04/22 06:33:42;;;;;;;12.82;3.03;;;;;;;;;;5013955;28;20052;-69
2022/04/22 06:36:14;;;;;;;6.57;2.50;;;;;;;;;;5013075;28;20096;-69
2022/04/22 06:38:42;;;;;;;8.60;2.50;;;;;;;;;;5013792;28;20092;-69
2022/04/22 06:46:38;;;;;;;7.75;2.53;;;;;;;;;;5013340;28;20046;-69
2022/04/22 06:49:04;;;;;;;5.93;2.28;;;;;;;;;;5012892;28;20045;-70
2022/04/22 06:51:31;;;;;;;6.32;2.25;;;;;;;;;;5013413;28;20124;-70
2022/04/22 06:53:57;;;;;;;10.25;2.88;;;;;;;;;;5013400;28;20087;-69
2022/04/22 06:56:26;;;;;;;5.35;2.30;;;;;;;;;;5013483;28;20044;-69
2022/04/22 06:58:52;;;;;;;5.65;2.55;;;;;;;;;;5013060;28;20498;-70
2022/04/22 07:01:19;;;;;;;4.55;2.33;;;;;;;;;;5013427;28;20048;-69
2022/04/22 07:03:45;;;;;;;9.07;2.55;;;;;;;;;;5013383;28;20049;-70
2022/04/22 07:06:12;;;;;;;7.90;2.60;;;;;;;;;;4995835;28;20409;-70
2022/04/22 07:08:38;;;;;;;11.68;3.05;;;;;;;;;;5013087;28;20551;-69
2022/04/22 07:11:06;;;;;;;11.18;2.50;;;;;;;;;;5012970;28;20046;-70
2022/04/22 07:13:32;;;;;;;5.95;2.53;;;;;;;;;;4995792;28;20045;-69
2022/04/22 07:15:59;;;;;;;9.30;3.25;;;;;;;;;;5012333;28;20544;-69
2022/04/22 07:18:26;;;;;;;7.80;2.58;;;;;;;;;;5013521;28;20061;-70
2022/04/22 07:20:52;;;;;;;9.55;2.42;;;;;;;;;;5013211;28;20042;-70
2022/04/22 07:23:18;;;;;;;8.15;2.50;;;;;;;;;;4995769;28;20445;-70
2022/04/22 07:25:46;;;;;;;12.00;2.90;;;;;;;;;;5011784;28;20481;-70
2022/04/22 07:28:13;;;;;;;7.07;2.60;;;;;;;;;;5013044;28;20046;-70
2022/04/22 07:30:40;;;;;;;7.53;2.53;;;;;;;;;;5012834;28;20049;-70
2022/04/22 07:33:07;;;;;;;9.82;2.70;;;;;;;;;;5012023;28;20045;-69
2022/04/22 07:35:33;;;;;;;8.38;2.80;;;;;;;;;;5008830;28;20097;-68
2022/04/22 07:37:59;;;;;;;6.85;2.30;;;;;;;;;;5012264;28;20386;-69
2022/04/22 07:40:25;;;;;;;9.23;2.72;;;;;;;;;;5011820;28;20038;-70
2022/04/22 07:48:22;;;;;;;7.60;2.60;;;;;;;;;;5012600;28;20053;-69
2022/04/22 07:50:49;;;;;;;10.20;3.10;;;;;;;;;;5012722;28;20163;-70
2022/04/22 07:53:15;;;;;;;7.40;2.83;;;;;;;;;;5012576;28;20034;-70
2022/04/22 07:55:42;;;;;;;5.57;2.47;;;;;;;;;;5012566;28;20481;-70
2022/04/22 07:58:10;;;;;;;7.20;2.83;;;;;;;;;;5019742;28;20058;-69
2022/04/22 08:00:36;;;;;;;4.70;2.50;;;;;;;;;;5015402;28;20052;-70
2022/04/22 08:03:02;;;;;;;4.05;2.55;;;;;;;;;;5012423;28;20038;-70
2022/04/22 08:05:28;;;;;;;8.50;2.95;;;;;;;;;;5012198;28;20046;-70
2022/04/22 08:07:54;;;;;;;11.50;2.72;;;;;;;;;;5011998;28;20486;-70
2022/04/22 08:10:20;;;;;;;10.63;3.28;;;;;;;;;;5012134;28;20056;-70
2022/04/22 08:12:46;;;;;;;8.23;2.50;;;;;;;;;;5012418;28;20042;-70
2022/04/22 08:15:12;;;;;;;7.20;2.90;;;;;;;;;;5012321;28;20562;-70
2022/04/22 08:17:38;;;;;;;7.30;2.70;;;;;;;;;;5013051;28;20042;-70
2022/04/22 08:20:05;;;;;;;9.45;2.92;;;;;;;;;;4993527;28;20076;-70
2022/04/22 08:22:32;;;;;;;9.45;2.67;;;;;;;;;;5017022;28;20045;-70
2022/04/22 08:24:57;;;;;;;8.10;3.15;;;;;;;;;;5014635;28;20042;-70
2022/04/22 08:27:28;;;;;;;10.43;2.80;;;;;;;;;;5015117;28;20038;-70
2022/04/22 08:29:54;;;;;;;8.50;3.03;;;;;;;;;;5015946;28;20056;-70
2022/04/22 08:32:20;;;;;;;5.80;2.65;;;;;;;;;;5014883;28;20045;-70
2022/04/22 08:34:46;;;;;;;5.93;2.75;;;;;;;;;;5016058;28;20049;-70
2022/04/22 08:37:12;;;;;;;8.00;2.72;;;;;;;;;;5015900;28;20037;-70
2022/04/22 08:39:39;;;;;;;6.60;2.70;;;;;;;;;;5015734;28;20054;-70
2022/04/22 08:42:05;;;;;;;6.57;2.53;;;;;;;;;;5014366;28;20524;-70
2022/04/22 08:44:32;;;;;;;6.25;2.80;;;;;;;;;;5014871;28;20046;-70
2022/04/22 08:49:58;;;;;;;6.35;2.53;;;;;;;;;;5016537;28;20045;-70
2022/04/22 08:52:27;;;;;;;4.28;2.38;;;;;;;;;;5015896;28;20041;-70
2022/04/22 08:54:54;;;;;;;6.07;2.65;;;;;;;;;;5015502;28;20045;-69
2022/04/22 08:57:20;;;;;;;9.05;2.50;;;;;;;;;;5015806;28;20085;-70
2022/04/22 08:59:46;;;;;;;7.68;2.60;;;;;;;;;;5011495;28;20076;-70
2022/04/22 09:02:16;;;;;;;5.88;2.42;;;;;;;;;;4993978;28;20100;-70
2022/04/22 09:04:42;;;;;;;9.85;3.15;;;;;;;;;;5010486;28;20034;-70
2022/04/22 09:07:13;;;;;;;9.18;2.58;;;;;;;;;;5014390;28;20052;-70
2022/04/22 09:09:44;;;;;;;7.10;2.60;;;;;;;;;;5015186;28;20046;-70
2022/04/22 09:12:13;;;;;;;9.60;2.78;;;;;;;;;;5014931;28;20500;-68
2022/04/22 09:14:49;;;;;;;6.32;2.45;;;;;;;;;;5014623;28;20076;-68
2022/04/22 09:17:17;;;;;;;7.90;2.65;;;;;;;;;;5013208;28;20493;-68
2022/04/22 09:19:44;;;;;;;9.05;2.70;;;;;;;;;;5015080;28;20050;-69
2022/04/22 09:22:10;;;;;;;5.55;2.80;;;;;;;;;;5015226;28;20042;-70
2022/04/22 09:25:05;;;;;;;7.45;2.90;;;;;;;;;;5016297;28;20116;-70
2022/04/22 09:27:38;;;;;;;8.75;2.90;;;;;;;;;;5006509;28;20054;-69
2022/04/22 09:30:09;;;;;;;5.68;2.80;;;;;;;;;;4997128;28;20045;-70
2022/04/22 09:32:37;;;;;;;5.72;2.50;;;;;;;;;;5014690;28;20053;-70
2022/04/22 09:35:09;;;;;;;6.07;2.70;;;;;;;;;;5014684;28;20124;-70
2022/04/22 09:43:22;;;;;;;5.72;2.42;;;;;;;;;;5014697;28;20050;-70
2022/04/22 09:45:48;;;;;;;4.18;2.50;;;;;;;;;;5014425;28;20060;-69
2022/04/22 09:48:16;;;;;;;8.50;3.08;;;;;;;;;;5014247;28;20050;-70
2022/04/22 09:50:43;;;;;;;5.22;2.50;;;;;;;;;;4996781;28;20497;-69
2022/04/22 09:53:10;;;;;;;4.28;2.10;;;;;;;;;;5013567;28;20050;-69
2022/04/22 09:55:46;;;;;;;8.10;2.80;;;;;;;;;;5012768;28;20044;-70
2022/04/22 09:58:12;;;;;;;6.47;2.70;;;;;;;;;;5014040;28;20050;-70
2022/04/22 10:00:38;;;;;;;5.97;2.40;;;;;;;;;;5014155;28;20382;-70
2022/04/22 10:03:04;;;;;;;4.63;2.30;;;;;;;;;;5014203;28;20057;-70
2022/04/22 10:05:31;;;;;;;3.58;2.33;;;;;;;;;;5012388;28;20120;-70
2022/04/22 10:07:58;;;;;;;7.15;2.67;;;;;;;;;;5014046;28;20042;-70
2022/04/22 10:10:30;;;;;;;5.35;2.40;;;;;;;;;;5013815;28;20146;-69
2022/04/22 10:12:59;;;;;;;5.28;2.40;;;;;;;;;;4997589;28;20459;-70
2022/04/22 10:15:29;;;;;;;5.00;2.40;;;;;;;;;;5010213;28;20065;-70
2022/04/22 10:17:56;;;;;;;3.10;2.33;;;;;;;;;;5013531;28;20048;-70
2022/04/22 10:20:23;;;;;;;6.57;3.08;;;;;;;;;;5012862;28;20041;-68
2022/04/22 10:22:50;;;;;;;5.38;2.42;;;;;;;;;;5017852;28;20053;-68
2022/04/22 10:25:17;;;;;;;7.72;3.10;;;;;;;;;;5013751;28;20048;-68
2022/04/22 10:27:43;;;;;;;6.68;2.85;;;;;;;;;;5014498;28;20049;-70
2022/04/22 10:30:11;;;;;;;5.82;2.40;;;;;;;;;;5013992;28;20172;-68
2022/04/22 10:32:39;;;;;;;5.30;2.42;;;;;;;;;;5013294;28;20401;-69
2022/04/22 10:35:05;;;;;;;4.03;2.45;;;;;;;;;;5013917;28;20053;-69
2022/04/22 10:37:33;;;;;;;3.25;2.28;;;;;;;;;;5012378;28;20053;-69
2022/04/22 10:39:59;;;;;;;6.35;2.40;;;;;;;;;;5013362;28;20049;-69
2022/04/22 10:42:35;;;;;;;4.63;2.50;;;;;;;;;;5013228;28;20045;-69
2022/04/22 10:47:48;;;;;;;7.07;2.75;;;;;;;;;;5011855;28;20046;-70
2022/04/22 10:50:23;;;;;;;5.03;2.33;;;;;;;;;;5009487;28;20468;-71
2022/04/22 10:52:56;;;;;;;4.68;2.40;;;;;;;;;;5009351;28;20042;-70
2022/04/22 10:55:22;;;;;;;7.07;2.60;;;;;;;;;;4993874;28;20049;-71
2022/04/22 10:57:51;;;;;;;6.45;2.35;;;;;;;;;;5009458;28;20589;-72
2022/04/22 11:00:17;;;;;;;6.53;2.42;;;;;;;;;;5012762;28;20045;-71
2022/04/22 11:02:46;;;;;;;6.97;2.65;;;;;;;;;;5012970;28;20068;-70
2022/04/22 11:05:21;;;;;;;6.25;2.75;;;;;;;;;;5012374;28;20053;-71
2022/04/22 11:07:56;;;;;;;5.15;2.97;;;;;;;;;;5011877;28;20392;-69
2022/04/22 11:10:25;;;;;;;6.18;2.45;;;;;;;;;;5013176;28;20052;-69
2022/04/22 11:12:52;;;;;;;5.25;2.80;;;;;;;;;;5013351;28;20137;-70
2022/04/22 11:15:37;;;;;;;9.98;2.75;;;;;;;;;;5012346;28;20042;-69
2022/04/22 11:18:03;;;;;;;8.25;2.75;;;;;;;;;;5012854;28;20050;-70
2022/04/22 11:20:29;;;;;;;7.50;2.70;;;;;;;;;;5013033;28;20053;-70
2022/04/22 11:22:59;;;;;;;6.15;2.58;;;;;;;;;;5012364;28;20038;-70
2022/04/22 11:25:25;;;;;;;4.55;2.53;;;;;;;;;;5013411;28;20042;-70
2022/04/22 11:27:55;;;;;;;7.70;2.75;;;;;;;;;;5012930;28;20046;-70
2022/04/22 11:30:22;;;;;;;4.68;2.40;;;;;;;;;;5012895;28;20046;-70
2022/04/22 11:32:49;;;;;;;4.93;2.58;;;;;;;;;;5013371;28;20046;-70
2022/04/22 11:35:22;;;;;;;4.97;2.50;;;;;;;;;;5013105;28;20049;-70
2022/04/22 11:38:01;;;;;;;4.60;2.63;;;;;;;;;;5011689;28;20088;-70
2022/04/22 11:40:27;;;;;;;6.13;2.53;;;;;;;;;;5013239;28;20508;-70
2022/04/22 11:42:54;;;;;;;5.65;2.30;;;;;;;;;;5012712;28;20053;-69
2022/04/22 11:45:21;;;;;;;4.75;2.60;;;;;;;;;;5012767;28;20501;-69
2022/04/22 11:47:47;;;;;;;6.80;2.75;;;;;;;;;;5012832;28;20370;-70
2022/04/22 11:50:21;;;;;;;6.40;2.60;;;;;;;;;;5012851;28;20049;-70
2022/04/22 11:52:56;;;;;;;4.18;2.40;;;;;;;;;;5012690;28;20057;-70
2022/04/22 11:55:22;;;;;;;6.38;2.83;;;;;;;;;;5013525;28;20086;-70
2022/04/22 11:57:49;;;;;;;4.35;2.47;;;;;;;;;;5015393;28;20049;-71
2022/04/22 12:05:48;;;;;;;6.30;2.67;;;;;;;;;;5013894;28;20042;-69
2022/04/22 12:08:15;;;;;;;7.28;2.72;;;;;;;;;;5016209;28;20053;-70
2022/04/22 12:10:43;;;;;;;6.68;2.70;;;;;;;;;;5015801;28;20049;-69
2022/04/22 12:13:09;;;;;;;5.55;2.70;;;;;;;;;;5014034;28;20129;-69
2022/04/22 12:15:39;;;;;;;4.45;2.67;;;;;;;;;;5015593;28;20046;-69
2022/04/22 12:18:06;;;;;;;6.88;2.60;;;;;;;;;;5015737;28;20045;-69
2022/04/22 12:20:32;;;;;;;7.18;2.60;;;;;;;;;;5015475;28;20046;-68
2022/04/22 12:22:59;;;;;;;6.68;2.72;;;;;;;;;;5015589;28;20103;-69
2022/04/22 12:25:25;;;;;;;4.20;2.40;;;;;;;;;;5015631;28;20057;-70
2022/04/22 12:28:13;;;;;;;6.65;2.67;;;;;;;;;;5015343;28;20046;-70
2022/04/22 12:30:39;;;;;;;4.22;2.55;;;;;;;;;;5015142;28;20137;-70
2022/04/22 12:33:06;;;;;;;6.55;2.40;;;;;;;;;;5014963;28;20037;-69
2022/04/22 12:35:32;;;;;;;5.28;2.53;;;;;;;;;;5015208;28;20042;-69
2022/04/22 12:38:02;;;;;;;5.30;2.50;;;;;;;;;;5015025;28;20045;-70
2022/04/22 12:40:28;;;;;;;4.25;2.30;;;;;;;;;;5014990;28;20433;-69
2022/04/22 12:42:54;;;;;;;5.88;2.70;;;;;;;;;;5013938;28;20489;-69
2022/04/22 12:53:47;;;;;;;6.38;2.33;;;;;;;;;;5015595;28;20488;-69
2022/04/22 12:56:13;;;;;;;5.68;2.47;;;;;;;;;;5015417;28;20042;-69
2022/04/22 12:58:52;;;;;;;6.88;2.50;;;;;;;;;;5015106;28;20065;-70
2022/04/22 13:01:19;;;;;;;6.03;2.60;;;;;;;;;;5015137;28;20244;-69
2022/04/22 13:03:46;;;;;;;3.90;2.30;;;;;;;;;;5015251;28;20038;-70
2022/04/22 13:06:14;;;;;;;3.95;2.13;;;;;;;;;;5014298;28;20417;-70
2022/04/22 13:08:40;;;;;;;7.05;2.47;;;;;;;;;;5015495;28;20053;-69
2022/04/22 13:11:08;;;;;;;5.45;2.67;;;;;;;;;;5014409;28;20176;-69
2022/04/22 13:13:34;;;;;;;5.97;2.60;;;;;;;;;;5013459;28;20456;-69
2022/04/22 13:16:00;;;;;;;4.97;3.10;;;;;;;;;;5014346;28;20159;-69
2022/04/22 13:18:27;;;;;;;4.80;2.40;;;;;;;;;;5015236;28;20504;-69
2022/04/22 13:20:54;;;;;;;5.85;2.50;;;;;;;;;;5015346;28;20054;-69
2022/04/22 13:23:20;;;;;;;5.55;2.70;;;;;;;;;;5014703;28;20061;-69
2022/04/22 13:25:46;;;;;;;4.80;2.47;;;;;;;;;;5014963;28;20041;-69
2022/04/22 13:28:12;;;;;;;5.80;2.55;;;;;;;;;;5014621;28;20042;-69
2022/04/22 13:30:38;;;;;;;4.40;2.20;;;;;;;;;;4995622;28;20049;-69
2022/04/22 13:33:04;;;;;;;4.97;2.45;;;;;;;;;;5015149;28;20096;-69
2022/04/22 13:35:30;;;;;;;9.85;2.75;;;;;;;;;;5014521;28;20057;-69
2022/04/22 13:37:56;;;;;;;5.82;2.60;;;;;;;;;;5014665;28;20129;-69
2022/04/22 13:40:22;;;;;;;5.10;2.50;;;;;;;;;;5014625;28;20049;-69
2022/04/22 13:42:48;;;;;;;5.80;2.75;;;;;;;;;;4995853;28;20497;-69
2022/04/22 13:53:29;;;;;;;7.45;2.80;;;;;;;;;;5014383;28;20049;-69
2022/04/22 13:55:55;;;;;;;10.73;3.30;;;;;;;;;;5014355;28;20509;-69
2022/04/22 13:58:21;;;;;;;8.05;2.80;;;;;;;;;;5013783;28;20101;-69
2022/04/22 14:00:47;;;;;;;8.40;3.13;;;;;;;;;;5014306;28;20053;-68
2022/04/22 14:03:13;;;;;;;9.93;2.60;;;;;;;;;;5014230;28;20056;-68
2022/04/22 14:05:39;;;;;;;7.63;3.00;;;;;;;;;;5013931;28;20143;-68
2022/04/22 14:08:06;;;;;;;9.45;3.10;;;;;;;;;;5012391;28;20050;-68
2022/04/22 14:10:32;;;;;;;7.50;2.88;;;;;;;;;;5014066;28;20129;-69
2022/04/22 14:12:58;;;;;;;7.13;2.80;;;;;;;;;;5013774;28;20112;-68
2022/04/22 14:15:25;;;;;;;9.65;3.08;;;;;;;;;;4996278;28;20050;-68
2022/04/22 14:17:52;;;;;;;7.50;3.10;;;;;;;;;;5012479;28;20050;-69
2022/04/22 14:20:18;;;;;;;6.80;3.28;;;;;;;;;;5011956;28;20046;-69
2022/04/22 14:22:44;;;;;;;12.52;3.35;;;;;;;;;;5010747;28;20053;-69
2022/04/22 14:25:10;;;;;;;8.77;3.47;;;;;;;;;;5011934;28;20060;-69
2022/04/22 14:27:36;;;;;;;8.50;3.30;;;;;;;;;;4998662;28;20058;-69
2022/04/22 14:30:03;;;;;;;5.22;2.80;;;;;;;;;;5013341;28;20390;-69
2022/04/22 14:32:29;;;;;;;7.93;2.70;;;;;;;;;;5013174;28;20122;-69
2022/04/22 14:34:55;;;;;;;5.97;2.80;;;;;;;;;;5012668;28;20065;-68
2022/04/22 14:37:21;;;;;;;6.68;2.92;;;;;;;;;;5010143;28;20045;-69
2022/04/22 14:39:47;;;;;;;7.13;3.00;;;;;;;;;;5014090;28;20196;-68
2022/04/22 14:42:13;;;;;;;4.75;2.80;;;;;;;;;;5013513;28;20046;-68
2022/04/22 14:44:39;;;;;;;9.68;3.03;;;;;;;;;;5013947;28;20041;-68
2022/04/22 14:47:10;;;;;;;6.47;2.67;;;;;;;;;;5012127;28;20405;-68
2022/04/22 14:49:36;;;;;;;4.70;2.70;;;;;;;;;;5016584;28;20042;-68
2022/04/22 14:52:02;;;;;;;8.55;2.97;;;;;;;;;;5013722;28;20046;-68
2022/04/22 14:54:28;;;;;;;4.45;2.60;;;;;;;;;;5013462;28;20042;-69
2022/04/22 14:56:54;;;;;;;7.85;2.92;;;;;;;;;;5012504;28;20041;-67
2022/04/22 14:59:20;;;;;;;5.70;2.55;;;;;;;;;;5014072;28;20152;-67
2022/04/22 15:01:46;;;;;;;6.70;2.80;;;;;;;;;;4996796;28;20049;-69
2022/04/22 15:04:12;;;;;;;7.32;3.03;;;;;;;;;;5011978;28;20402;-70
2022/04/22 15:06:38;;;;;;;8.52;2.90;;;;;;;;;;5013241;28;20520;-69
2022/04/22 15:09:05;;;;;;;9.30;3.13;;;;;;;;;;5013234;28;20041;-69
2022/04/22 15:11:31;;;;;;;6.60;3.00;;;;;;;;;;4999509;28;20086;-69
2022/04/22 15:13:59;;;;;;;6.10;2.80;;;;;;;;;;5013187;28;20096;-69
2022/04/22 15:16:27;;;;;;;5.10;2.85;;;;;;;;;;5012881;28;20050;-69
2022/04/22 15:24:23;;;;;;;5.90;2.80;;;;;;;;;;5013361;28;20085;-69
2022/04/22 15:26:50;;;;;;;6.22;3.20;;;;;;;;;;5013014;28;20092;-69
2022/04/22 15:29:16;;;;;;;5.85;2.83;;;;;;;;;;4995200;28;20053;-69
2022/04/22 15:31:42;;;;;;;5.75;2.75;;;;;;;;;;5016941;28;20452;-69
2022/04/22 15:34:09;;;;;;;4.97;2.70;;;;;;;;;;5016323;28;20555;-69
2022/04/22 15:36:37;;;;;;;4.47;2.40;;;;;;;;;;4999554;28;20046;-69
2022/04/22 15:39:04;;;;;;;8.18;2.80;;;;;;;;;;5016070;28;20038;-69
2022/04/22 15:41:34;;;;;;;5.53;2.78;;;;;;;;;;5016785;28;20150;-69
2022/04/22 15:44:01;;;;;;;6.82;3.25;;;;;;;;;;5012638;28;20042;-69
2022/04/22 15:46:27;;;;;;;7.25;3.33;;;;;;;;;;5016317;28;20053;-69
2022/04/22 15:48:54;;;;;;;4.90;3.67;;;;;;;;;;5015149;28;20552;-68
2022/04/22 15:51:23;;;;;;;10.25;5.20;;;;;;;;;;5016729;28;20129;-70
2022/04/22 15:53:50;;;;;;;9.60;6.20;;;;;;;;;;5015316;28;20049;-68
2022/04/22 15:56:16;;;;;;;41.95;22.88;;;;;;;;;;5016869;28;20048;-69
2022/04/22 15:58:43;;;;;;;15.38;8.65;;;;;;;;;;5015632;28;20057;-68
2022/04/22 16:01:16;;;;;;;15.80;8.63;;;;;;;;;;5016707;28;20045;-69
2022/04/22 16:03:51;;;;;;;20.40;10.90;;;;;;;;;;5016388;28;20053;-68
2022/04/22 16:06:18;;;;;;;26.17;15.20;;;;;;;;;;5014716;28;20033;-69